Etusivu
METAR-TAF:

METAR-TAF

Lentoasemat :

Agadir, Marokko

Leveyspiiri: 30-20N, Pituuspiiri: 009-24W, korkeus merenpinnasta: 74 m

Tämänhetkinen sää

Tämä raportti tehtiin 32 minuuttia sitten, kello 21.00 UTC
Tuuli 8 kn lounaasta
Lämpötila 20°C
Kosteus 94%
Ilmanpaine 1011 hPa
Näkyvyys 10 km tai enemmän
ei pilviä alle 1500 m:ssä eikä cumulonimbus-pilviä

METAR: GMAD 132100Z 22008KT CAVOK 20/19 Q1011 NOSIG

Aika: 22:32 (21:32 UTC)

Sääennuste

Tämä raportti tehtiin 4 tuntia ja 32 minuuttia sitten, kello 17.00 UTC
Ennuste voimassa 13. päivästä klo 18 UTC - 14. päivään klo 24 UTC
Tuuli 8 kn etelästä/lounaasta
Näkyvyys 10 km tai enemmän
ei pilviä alle 1500 m:ssä eikä cumulonimbus-pilviä

TAF: GMAD 131700Z 1318/1424 20008KT CAVOK

Säähavainnot ja -ennusteet yli 4000 lentoasemalta (METAR- ja TAF-raportit).

Käytössä olevat sääasemat on merkitty karttaan keltaisilla ja punaisilla pisteillä.

Aseta hiiri pisteen päälle nähdäksesi sääaseman nimen.

Klikkaa sitten nähdäksesi säähavainnot ja -ennusteet.

Kartan vaihtaminen: klikkaa mustalla rastilla varustettuja vihreitä pisteitä, niin voit zoomata sisään; viivalla varustettua vihreää pistettä, niin voit zoomata ulos tai vihreitä nuolia, niin pääset viereisille kartoille.


METAR-TAF: